This is the latest recevied weather packets stored in our database for station/object DB0OHA-13. If no packets are shown the sender has not sent any weather packets the latest 10 day(s).
| Time | Temp. | Humidity | Pressure | Rain* | Wind** | Luminosity | Snow |
|---|---|---|---|---|---|---|---|
| 1777704073 | 16.67° C | 56% | 1022.1 hPa | 0 mm | - | 247 W/m² | - |
| 1777703473 | 16.11° C | 57% | 1022.2 hPa | 0 mm | - | 272 W/m² | - |
| 1777702873 | 15° C | 61% | 1022.2 hPa | 0 mm | - | 261 W/m² | - |
| 1777702273 | 13.89° C | 61% | 1022.1 hPa | 0 mm | - | 214 W/m² | - |
| 1777701672 | 13.33° C | 63% | 1022.2 hPa | 0 mm | - | 195 W/m² | - |
| 1777700473 | 11.67° C | 63% | 1022.2 hPa | 0 mm | - | 25 W/m² | - |
| 1777699872 | 11.67° C | 63% | 1022.3 hPa | 0 mm | - | 25 W/m² | - |
| 1777699272 | 11.11° C | 63% | 1022.4 hPa | 0 mm | - | 23 W/m² | - |
| 1777698672 | 11.11° C | 63% | 1022.4 hPa | 0 mm | - | 21 W/m² | - |
| 1777698072 | 11.11° C | 64% | 1022.3 hPa | 0 mm | - | 19 W/m² | - |
| 1777697472 | 11.11° C | 64% | 1022.3 hPa | 0 mm | - | 18 W/m² | - |
| 1777696872 | 11.11° C | 64% | 1022.4 hPa | 0 mm | - | 16 W/m² | - |
| 1777696272 | 11.11° C | 64% | 1022.3 hPa | 0 mm | - | 14 W/m² | - |
| 1777695672 | 11.11° C | 64% | 1022.3 hPa | 0 mm | - | 11 W/m² | - |
| 1777695072 | 11.11° C | 64% | 1022.4 hPa | 0 mm | - | 9 W/m² | - |
| 1777694472 | 11.11° C | 64% | 1022.5 hPa | 0 mm | - | 5 W/m² | - |
| 1777693872 | 11.67° C | 64% | 1022.5 hPa | 0 mm | - | 0 W/m² | - |
| 1777693272 | 11.11° C | 64% | 1022.4 hPa | 0 mm | - | 0 W/m² | - |
| 1777692671 | 11.67° C | 64% | 1022.6 hPa | 0 mm | - | 0 W/m² | - |
| 1777692071 | 11.11° C | 64% | 1022.6 hPa | 0 mm | - | 0 W/m² | - |
| 1777691471 | 11.67° C | 64% | 1022.8 hPa | 0 mm | - | 0 W/m² | - |
| 1777690871 | 11.67° C | 64% | 1022.8 hPa | 0 mm | - | 0 W/m² | - |
| 1777690271 | 12.22° C | 64% | 1023 hPa | 0 mm | - | 0 W/m² | - |
| 1777689671 | 11.67° C | 64% | 1023 hPa | 0 mm | - | 0 W/m² | - |
| 1777689071 | 12.22° C | 64% | 1023.1 hPa | 0 mm | - | 0 W/m² | - |
* Rain latest hour (hover to see other rain measurements)
** Current wind speed in m/s (hover to see current wind gust speed)